Time;durP1;ratioP1;P1;durP2;ratioP2;P2;SDS_P1;SDS_P2;PMS_P1;PMS_P2;Temp;Humidity;BMP_temperature;BMP_pressure;BME280_temperature;BME280_humidity;BME280_pressure;Samples;Min_cycle;Max_cycle;Signal;HPM_P1;HPM_P2
2021/06/29 00:01:54;;;;;;;7.57;6.43;;;;;;;26.63;51.24;99576.22;5011389;28;20026;-76
2021/06/29 00:04:19;;;;;;;7.00;6.30;;;;;;;27.04;51.28;99648.03;5011516;28;20479;-76
2021/06/29 00:06:44;;;;;;;7.65;6.47;;;;;;;26.75;51.13;99599.16;5011810;28;20159;-76
2021/06/29 00:09:10;;;;;;;7.97;7.13;;;;;;;26.57;51.11;99584.41;5011660;28;20033;-75
2021/06/29 00:11:35;;;;;;;7.28;6.57;;;;;;;26.64;51.43;99586.78;5011718;28;20026;-75
2021/06/29 00:14:01;;;;;;;8.93;6.88;;;;;;;26.83;51.41;99628.38;5011600;28;20550;-75
2021/06/29 00:16:26;;;;;;;8.70;6.82;;;;;;;26.63;51.38;99619.56;5015533;28;20034;-75
2021/06/29 00:18:52;;;;;;;7.20;6.50;;;;;;;26.68;51.53;99620.34;5014398;28;20036;-75
2021/06/29 00:21:19;;;;;;;7.05;6.35;;;;;;;26.47;51.32;99595.31;5015706;28;20025;-75
2021/06/29 00:23:44;;;;;;;8.68;6.60;;;;;;;26.60;51.68;99604.69;5015638;28;20033;-76
2021/06/29 00:26:10;;;;;;;7.63;6.82;;;;;;;26.67;51.80;99628.75;5015296;28;20034;-75
2021/06/29 00:28:36;;;;;;;7.78;6.60;;;;;;;26.64;51.74;99629.31;5015205;28;20030;-76
2021/06/29 00:31:02;;;;;;;6.88;6.10;;;;;;;26.59;51.78;99635.56;5015407;28;20032;-76
2021/06/29 00:33:28;;;;;;;7.05;6.38;;;;;;;26.01;51.73;99548.75;5013849;28;20030;-75
2021/06/29 00:35:53;;;;;;;8.02;7.00;;;;;;;26.25;51.73;99584.03;5015207;28;20032;-75
2021/06/29 00:38:19;;;;;;;7.32;6.40;;;;;;;26.43;51.99;99612.41;5015699;28;20080;-76
2021/06/29 00:40:44;;;;;;;9.75;6.78;;;;;;;26.44;52.00;99628.34;5013812;28;20062;-76
2021/06/29 00:43:09;;;;;;;8.25;6.57;;;;;;;26.33;52.13;99637.63;5015354;28;20026;-75
2021/06/29 00:45:35;;;;;;;9.05;5.90;;;;;;;26.31;52.32;99625.44;5015144;28;20036;-76
2021/06/29 00:48:00;;;;;;;9.93;6.05;;;;;;;25.84;52.04;99559.06;5014789;28;20453;-76
2021/06/29 00:50:26;;;;;;;7.20;6.50;;;;;;;26.15;52.23;99609.28;5015074;28;20038;-76
2021/06/29 00:52:52;;;;;;;8.43;6.50;;;;;;;25.87;52.01;99558.53;5015188;28;20033;-76
2021/06/29 00:55:17;;;;;;;9.23;6.70;;;;;;;25.74;52.13;99549.13;5015006;28;20033;-75
2021/06/29 00:57:48;;;;;;;8.50;6.43;;;;;;;25.87;52.20;99569.34;5014804;28;20521;-76
2021/06/29 01:00:14;;;;;;;7.25;6.65;;;;;;;26.02;52.24;99614.47;5014868;28;20025;-75
2021/06/29 01:02:39;;;;;;;8.00;6.53;;;;;;;25.73;52.48;99562.91;5013741;28;20034;-75
2021/06/29 01:05:06;;;;;;;7.68;6.43;;;;;;;25.66;52.13;99552.41;5013577;28;20022;-75
2021/06/29 01:07:31;;;;;;;9.65;6.78;;;;;;;26.00;52.42;99608.50;5014809;28;20036;-75
2021/06/29 01:09:57;;;;;;;8.77;6.28;;;;;;;25.63;52.43;99552.91;5016963;28;20021;-76
2021/06/29 01:12:22;;;;;;;8.57;6.57;;;;;;;25.65;52.41;99566.97;5014545;28;20422;-75
2021/06/29 01:14:47;;;;;;;7.65;6.95;;;;;;;25.47;52.36;99548.66;5013158;28;20112;-75
2021/06/29 01:17:13;;;;;;;8.25;6.78;;;;;;;25.40;52.87;99545.44;5014321;28;20032;-75
2021/06/29 01:19:49;;;;;;;13.75;7.20;;;;;;;25.76;52.62;99624.56;5014294;28;20022;-75
2021/06/29 01:22:15;;;;;;;6.95;6.25;;;;;;;25.15;52.73;99533.59;5013111;28;20494;-75
2021/06/29 01:24:44;;;;;;;10.25;7.22;;;;;;;25.74;53.15;99621.34;5013202;28;20048;-75
2021/06/29 01:32:18;;;;;;;10.07;7.25;;;;;;;25.55;53.04;99627.31;5013943;28;20026;-74
2021/06/29 01:34:44;;;;;;;8.63;6.80;;;;;;;25.51;53.42;99620.81;5014128;28;20053;-77
2021/06/29 01:37:10;;;;;;;7.68;6.97;;;;;;;25.39;53.12;99612.19;5014117;28;20530;-76
2021/06/29 01:39:35;;;;;;;8.00;7.20;;;;;;;25.21;53.28;99588.44;5012887;28;20026;-74
2021/06/29 01:42:01;;;;;;;7.85;6.78;;;;;;;25.40;53.36;99638.16;5013489;28;20077;-73
2021/06/29 01:44:33;;;;;;;8.00;7.13;;;;;;;24.84;53.68;99556.28;5012657;28;20427;-77
2021/06/29 01:47:00;;;;;;;9.05;6.82;;;;;;;24.73;53.41;99546.56;5013845;28;20022;-76
2021/06/29 01:49:27;;;;;;;7.57;6.88;;;;;;;25.30;53.61;99638.16;5014177;28;20156;-75
2021/06/29 01:51:54;;;;;;;9.20;7.22;;;;;;;25.06;53.47;99602.75;5013744;28;20477;-74
2021/06/29 01:54:21;;;;;;;10.55;7.28;;;;;;;25.18;53.65;99641.13;5013875;28;20026;-73
2021/06/29 01:56:48;;;;;;;9.07;7.45;;;;;;;25.21;53.84;99639.78;5013530;28;20018;-74
2021/06/29 01:59:17;;;;;;;12.00;8.20;;;;;;;25.00;54.15;99630.88;5013752;28;20025;-76
2021/06/29 02:01:44;;;;;;;10.70;7.68;;;;;;;24.86;54.59;99616.25;5013612;28;20026;-76
2021/06/29 02:04:10;;;;;;;12.45;8.48;;;;;;;24.37;54.46;99547.34;5013330;28;20022;-76
2021/06/29 02:06:36;;;;;;;9.82;8.13;;;;;;;24.93;54.61;99636.50;5013181;28;20026;-74
2021/06/29 02:09:01;;;;;;;10.05;8.30;;;;;;;24.59;54.64;99578.72;5013203;28;20105;-75
2021/06/29 02:11:27;;;;;;;8.10;7.30;;;;;;;24.90;54.69;99626.25;5013270;28;20517;-75
2021/06/29 02:13:52;;;;;;;10.02;8.32;;;;;;;24.88;55.00;99622.19;5013356;28;20516;-75
2021/06/29 02:16:17;;;;;;;9.30;8.38;;;;;;;24.67;55.01;99616.78;5013310;28;20022;-74
2021/06/29 02:18:43;;;;;;;10.48;8.65;;;;;;;24.74;55.03;99616.50;5012198;28;20026;-76
2021/06/29 02:21:11;;;;;;;10.65;9.43;;;;;;;24.61;55.15;99601.66;5013257;28;20104;-76
2021/06/29 02:23:37;;;;;;;10.25;9.32;;;;;;;24.86;55.37;99629.75;5013200;28;20029;-75
2021/06/29 02:26:02;;;;;;;14.40;9.88;;;;;;;24.93;55.36;99646.50;5013329;28;20026;-76
2021/06/29 02:28:28;;;;;;;11.20;9.88;;;;;;;24.69;55.45;99603.00;5013567;28;20022;-76
2021/06/29 02:30:53;;;;;;;15.02;9.50;;;;;;;24.90;55.73;99642.44;5013153;28;20021;-75
2021/06/29 02:33:19;;;;;;;10.63;9.60;;;;;;;24.76;55.96;99625.16;5013145;28;20029;-76
2021/06/29 02:35:44;;;;;;;12.52;9.75;;;;;;;24.65;55.79;99600.03;5011866;28;20025;-75
2021/06/29 02:38:10;;;;;;;11.05;9.95;;;;;;;25.01;55.93;99651.41;5012872;28;20033;-76
2021/06/29 02:40:36;;;;;;;12.98;10.82;;;;;;;25.01;55.96;99646.81;5013042;28;20046;-76
2021/06/29 02:43:02;;;;;;;14.20;10.88;;;;;;;24.93;55.79;99633.81;5013127;28;20029;-76
2021/06/29 02:45:28;;;;;;;12.10;10.95;;;;;;;24.66;56.37;99600.84;5011942;28;20079;-77
2021/06/29 02:47:57;;;;;;;12.02;10.82;;;;;;;24.80;56.25;99641.63;5011837;28;20113;-77
2021/06/29 02:50:23;;;;;;;12.82;11.48;;;;;;;24.70;56.50;99632.44;5013036;28;20018;-76
2021/06/29 02:52:49;;;;;;;13.60;12.00;;;;;;;24.33;56.53;99573.25;5012619;28;20028;-74
2021/06/29 02:55:15;;;;;;;13.40;12.15;;;;;;;24.73;56.84;99641.91;5013318;28;20564;-74
2021/06/29 02:57:42;;;;;;;13.70;12.18;;;;;;;24.83;56.55;99673.50;5011674;28;20104;-76
2021/06/29 03:00:14;;;;;;;14.68;13.18;;;;;;;24.86;56.46;99652.16;5012367;28;20021;-75
2021/06/29 03:02:39;;;;;;;20.05;14.13;;;;;;;24.32;56.70;99566.22;5012330;28;20510;-74
2021/06/29 03:05:06;;;;;;;17.90;13.50;;;;;;;24.83;56.98;99658.09;5012441;28;20026;-75
2021/06/29 03:07:31;;;;;;;21.33;15.10;;;;;;;24.76;56.86;99656.75;5012374;28;20482;-75
2021/06/29 03:09:57;;;;;;;23.17;15.70;;;;;;;24.36;57.02;99591.59;5012219;28;20032;-77
2021/06/29 03:12:22;;;;;;;27.70;17.42;;;;;;;24.63;57.36;99636.47;5012207;28;20014;-76
2021/06/29 03:14:53;;;;;;;32.00;18.27;;;;;;;23.99;57.71;99610.63;5011137;28;20104;-76
2021/06/29 03:17:19;;;;;;;27.55;17.50;;;;;;;24.56;57.69;99654.81;5012586;28;20017;-76
2021/06/29 03:19:44;;;;;;;29.00;17.48;;;;;;;24.70;57.68;99661.34;5012371;28;20034;-76
2021/06/29 03:22:10;;;;;;;31.33;18.48;;;;;;;24.65;57.74;99648.63;5012066;28;20021;-77
2021/06/29 03:24:36;;;;;;;30.30;18.55;;;;;;;24.44;57.65;99611.84;5012110;28;20106;-75
2021/06/29 03:27:01;;;;;;;38.65;20.08;;;;;;;24.54;57.75;99622.69;5010709;28;20030;-75
2021/06/29 03:29:27;;;;;;;37.70;19.80;;;;;;;24.28;57.77;99580.53;5011915;28;20479;-75
2021/06/29 03:31:52;;;;;;;32.25;19.17;;;;;;;24.31;57.86;99590.78;5012123;28;20022;-76
2021/06/29 03:34:17;;;;;;;42.30;21.08;;;;;;;24.30;57.47;99568.38;5012283;28;20471;-75
2021/06/29 03:36:43;;;;;;;41.25;21.25;;;;;;;24.77;58.05;99640.28;5012074;28;20478;-77
2021/06/29 03:39:08;;;;;;;47.35;22.08;;;;;;;24.45;57.83;99597.28;5010887;28;20036;-76
2021/06/29 03:41:35;;;;;;;49.53;22.98;;;;;;;24.92;57.54;99655.69;5011772;28;20145;-75
2021/06/29 03:44:00;;;;;;;57.95;25.42;;;;;;;24.89;58.06;99654.34;5011815;28;20105;-75
2021/06/29 03:46:26;;;;;;;52.83;25.58;;;;;;;24.89;58.25;99658.91;5011966;28;20113;-77
2021/06/29 03:48:52;;;;;;;64.00;28.83;;;;;;;24.70;58.50;99621.63;5011492;28;20037;-76
2021/06/29 03:51:18;;;;;;;63.13;30.75;;;;;;;24.62;58.60;99657.28;5011374;28;20030;-76
2021/06/29 03:53:43;;;;;;;83.63;35.13;;;;;;;24.77;59.05;99656.47;5011947;28;20045;-75
2021/06/29 03:56:24;;;;;;;86.90;36.45;;;;;;;24.77;59.67;99666.47;5011981;28;20030;-76
2021/06/29 03:59:03;;;;;;;105.65;40.92;;;;;;;24.68;59.91;99664.31;5011973;28;20030;-76
2021/06/29 04:01:29;;;;;;;114.28;45.28;;;;;;;24.30;60.14;99616.16;5011985;28;20026;-77
2021/06/29 04:03:56;;;;;;;108.55;43.38;;;;;;;24.38;60.35;99635.31;5011877;28;20483;-76
2021/06/29 04:06:24;;;;;;;103.57;41.20;;;;;;;24.70;60.52;99664.03;5011973;28;20021;-77
2021/06/29 04:08:51;;;;;;;105.60;43.72;;;;;;;24.61;60.71;99661.06;5010512;28;20478;-76
2021/06/29 04:11:16;;;;;;;96.75;41.33;;;;;;;24.62;61.09;99672.66;5011867;28;20046;-76
2021/06/29 04:13:42;;;;;;;89.93;40.13;;;;;;;24.45;61.05;99639.66;5011932;28;20038;-76
2021/06/29 04:16:07;;;;;;;94.60;39.50;;;;;;;24.53;61.33;99645.38;5011792;28;20108;-76
2021/06/29 04:18:33;;;;;;;75.32;35.42;;;;;;;24.60;61.21;99669.41;5011618;28;20041;-77
2021/06/29 04:20:58;;;;;;;84.18;37.80;;;;;;;24.30;61.39;99608.06;5012052;28;20026;-75
2021/06/29 04:23:23;;;;;;;85.40;37.50;;;;;;;24.74;61.42;99667.00;5011699;28;20029;-76
2021/06/29 04:25:49;;;;;;;91.07;38.95;;;;;;;24.56;61.30;99636.75;5011761;28;20027;-77
2021/06/29 04:28:14;;;;;;;92.13;38.67;;;;;;;24.77;61.27;99652.97;5011686;28;20029;-75
2021/06/29 04:30:40;;;;;;;90.35;39.75;;;;;;;24.59;61.39;99628.09;5011683;28;20032;-75
2021/06/29 04:33:05;;;;;;;85.50;37.63;;;;;;;24.76;61.13;99646.75;5011666;28;20053;-76
2021/06/29 04:35:31;;;;;;;81.97;37.78;;;;;;;24.53;61.22;99595.97;5010339;28;20083;-76
2021/06/29 04:37:56;;;;;;;91.63;39.47;;;;;;;24.98;61.11;99658.16;5011854;28;20029;-76
2021/06/29 04:40:22;;;;;;;75.60;34.95;;;;;;;24.94;60.87;99658.94;5012162;28;20034;-76
2021/06/29 04:42:47;;;;;;;82.10;37.15;;;;;;;25.10;60.81;99665.19;5012126;28;20022;-76
2021/06/29 04:45:13;;;;;;;65.55;35.00;;;;;;;24.92;60.95;99620.56;5009989;28;20113;-76
2021/06/29 04:47:44;;;;;;;68.28;34.60;;;;;;;24.81;60.94;99597.34;5011322;28;20490;-76
2021/06/29 04:50:11;;;;;;;63.55;33.47;;;;;;;24.90;61.09;99615.44;5011123;28;20018;-76
2021/06/29 04:52:36;;;;;;;58.90;32.92;;;;;;;24.89;60.89;99608.41;5010000;28;20411;-76
2021/06/29 04:55:02;;;;;;;49.95;29.58;;;;;;;25.10;60.93;99636.25;5011212;28;20026;-77
2021/06/29 04:57:28;;;;;;;42.90;29.08;;;;;;;25.18;60.66;99637.59;5009819;28;20473;-77
2021/06/29 04:59:53;;;;;;;38.60;25.23;;;;;;;24.93;60.57;99578.97;5011294;28;20026;-76
2021/06/29 05:02:19;;;;;;;31.88;21.88;;;;;;;25.37;60.09;99635.19;5012766;28;20022;-75
2021/06/29 05:04:44;;;;;;;24.67;18.55;;;;;;;25.28;59.99;99616.00;5014691;28;20018;-76
2021/06/29 05:07:09;;;;;;;22.55;16.42;;;;;;;25.63;59.30;99672.72;5014598;28;20415;-77
2021/06/29 05:09:35;;;;;;;22.02;15.48;;;;;;;24.91;58.87;99559.53;5014565;28;20049;-75
2021/06/29 05:12:00;;;;;;;19.50;16.30;;;;;;;25.39;58.83;99624.91;5017973;28;20034;-76
2021/06/29 05:14:26;;;;;;;20.42;17.60;;;;;;;25.42;58.84;99627.06;5031348;28;20025;-76
2021/06/29 05:16:51;;;;;;;21.88;17.95;;;;;;;25.63;58.93;99667.31;5018642;28;20174;-77
2021/06/29 05:19:17;;;;;;;22.45;18.75;;;;;;;25.08;58.63;99572.78;5028000;28;20479;-76
2021/06/29 05:21:42;;;;;;;18.45;16.45;;;;;;;25.31;58.61;99600.06;5028129;28;20025;-76
2021/06/29 05:24:08;;;;;;;21.67;18.45;;;;;;;25.72;58.89;99667.59;5033795;28;20056;-76
2021/06/29 05:26:33;;;;;;;22.13;19.50;;;;;;;25.23;58.94;99588.97;5032550;28;20583;-76
2021/06/29 05:28:59;;;;;;;22.75;19.95;;;;;;;25.40;59.08;99623.81;5033833;28;20100;-75
2021/06/29 05:31:24;;;;;;;25.25;19.10;;;;;;;25.29;59.21;99599.53;5033777;28;20026;-75
2021/06/29 05:33:49;;;;;;;22.80;18.85;;;;;;;25.59;59.62;99660.00;5034033;28;20053;-77
2021/06/29 05:36:15;;;;;;;22.98;19.85;;;;;;;25.29;59.91;99607.63;5021806;28;20096;-76
2021/06/29 05:38:40;;;;;;;23.50;20.95;;;;;;;25.17;59.61;99580.06;5033747;28;20087;-77
2021/06/29 05:41:06;;;;;;;22.55;19.88;;;;;;;25.53;59.42;99629.47;5033575;28;20506;-77
2021/06/29 05:43:31;;;;;;;24.05;19.55;;;;;;;25.29;59.55;99568.97;5032138;28;20033;-76
2021/06/29 05:45:56;;;;;;;22.75;19.77;;;;;;;25.86;59.57;99657.00;5029771;28;20032;-76
2021/06/29 05:48:23;;;;;;;22.73;19.63;;;;;;;25.61;59.38;99618.09;5016601;28;20037;-76
2021/06/29 05:50:48;;;;;;;22.63;19.77;;;;;;;25.93;59.31;99655.63;5027087;28;20032;-75
2021/06/29 05:53:14;;;;;;;30.85;24.52;;;;;;;25.48;59.39;99580.81;5033155;28;20013;-76
2021/06/29 05:55:40;;;;;;;23.33;20.92;;;;;;;25.87;59.13;99620.75;5028534;28;20079;-76
2021/06/29 05:58:05;;;;;;;22.83;20.27;;;;;;;25.80;58.97;99596.69;5022171;28;20494;-77
2021/06/29 06:00:30;;;;;;;23.00;20.55;;;;;;;26.00;58.86;99622.84;5030734;28;20021;-76
2021/06/29 06:02:56;;;;;;;23.52;20.63;;;;;;;25.85;58.74;99593.97;5029254;28;20022;-76
2021/06/29 06:05:21;;;;;;;24.00;21.05;;;;;;;25.97;58.47;99604.47;5012289;28;20091;-75
2021/06/29 06:07:47;;;;;;;26.83;21.23;;;;;;;25.69;58.45;99562.66;5013639;28;20495;-76
2021/06/29 06:10:14;;;;;;;28.58;23.27;;;;;;;25.98;58.25;99611.50;5013531;28;20030;-75
2021/06/29 06:12:39;;;;;;;23.25;20.52;;;;;;;26.30;58.10;99638.16;5031213;28;20025;-75
2021/06/29 06:15:06;;;;;;;23.52;20.83;;;;;;;26.23;57.86;99611.41;5028539;28;20022;-77
2021/06/29 06:17:32;;;;;;;25.58;18.13;;;;;;;26.60;57.41;99667.78;5030890;28;20025;-76
2021/06/29 06:19:58;;;;;;;22.35;19.33;;;;;;;26.65;57.34;99672.38;5031765;28;20021;-75
2021/06/29 06:22:23;;;;;;;23.40;20.88;;;;;;;26.48;57.25;99639.44;5033083;28;20078;-75
2021/06/29 06:24:49;;;;;;;21.95;19.50;;;;;;;26.73;57.34;99663.63;5033051;28;20026;-75
2021/06/29 06:27:15;;;;;;;24.38;19.75;;;;;;;26.78;57.38;99662.81;5024875;28;20089;-76
2021/06/29 06:29:42;;;;;;;29.38;20.58;;;;;;;26.46;57.18;99601.00;5032480;28;20087;-77
2021/06/29 06:32:08;;;;;;;23.30;20.80;;;;;;;26.87;57.41;99658.44;5026124;28;20560;-76
2021/06/29 06:34:33;;;;;;;22.73;20.27;;;;;;;26.47;57.26;99586.38;5022925;28;20029;-76
2021/06/29 06:36:59;;;;;;;23.05;20.65;;;;;;;26.45;57.73;99596.69;5017918;28;20076;-75
2021/06/29 06:39:24;;;;;;;20.98;18.77;;;;;;;26.69;57.42;99634.69;5025605;28;20025;-76
2021/06/29 06:41:50;;;;;;;24.27;20.80;;;;;;;26.87;57.53;99640.28;5024361;28;20041;-74
2021/06/29 06:44:15;;;;;;;28.38;22.15;;;;;;;26.68;57.39;99593.25;5026611;28;20502;-75
2021/06/29 06:46:41;;;;;;;22.77;20.05;;;;;;;26.80;57.09;99599.16;5031468;28;20111;-73
2021/06/29 06:49:06;;;;;;;25.17;20.77;;;;;;;26.78;57.11;99589.69;5029882;28;20025;-75
2021/06/29 06:51:32;;;;;;;21.35;19.10;;;;;;;27.23;56.88;99673.34;5026080;28;20045;-74
2021/06/29 06:53:57;;;;;;;21.40;18.50;;;;;;;26.99;56.83;99617.44;5009292;28;20103;-74
2021/06/29 06:56:23;;;;;;;20.48;18.33;;;;;;;27.14;56.59;99631.66;5023516;28;20027;-74
2021/06/29 06:58:48;;;;;;;20.98;18.77;;;;;;;27.39;56.29;99671.28;5030013;28;20490;-77
2021/06/29 07:01:15;;;;;;;19.98;17.90;;;;;;;27.32;55.92;99643.72;5031662;28;20061;-76
2021/06/29 07:03:40;;;;;;;19.55;17.25;;;;;;;27.43;55.82;99649.84;5016933;28;20034;-75
2021/06/29 07:06:07;;;;;;;23.05;20.63;;;;;;;27.57;55.60;99655.41;5012215;28;20034;-74
2021/06/29 07:08:33;;;;;;;24.80;20.80;;;;;;;27.17;55.60;99595.06;5014620;28;20052;-75
2021/06/29 07:11:00;;;;;;;19.25;17.38;;;;;;;27.62;54.88;99650.78;5024307;28;20031;-75
2021/06/29 07:13:26;;;;;;;17.70;15.80;;;;;;;27.51;54.52;99638.41;5019952;28;20108;-76
2021/06/29 07:15:51;;;;;;;19.92;16.63;;;;;;;27.30;54.56;99602.50;5031605;28;20061;-75
2021/06/29 07:18:17;;;;;;;21.08;18.80;;;;;;;27.72;54.48;99664.25;5016966;28;20034;-76
2021/06/29 07:20:49;;;;;;;19.38;17.30;;;;;;;27.49;54.24;99618.84;5020203;28;20470;-73
2021/06/29 07:23:17;;;;;;;18.50;16.75;;;;;;;27.84;53.84;99645.66;5015940;28;20033;-75
2021/06/29 07:25:43;;;;;;;19.30;17.25;;;;;;;27.83;53.81;99648.66;5021369;28;20049;-76
2021/06/29 07:28:09;;;;;;;20.80;18.60;;;;;;;27.85;53.75;99641.84;5019583;28;20057;-76
2021/06/29 07:30:37;;;;;;;19.25;17.25;;;;;;;27.98;53.21;99655.81;5019200;28;20069;-76
2021/06/29 07:33:04;;;;;;;18.23;16.38;;;;;;;27.38;53.44;99572.06;5020617;28;20075;-74
2021/06/29 07:35:30;;;;;;;21.75;17.90;;;;;;;27.77;53.43;99617.25;5020198;28;20112;-75
2021/06/29 07:37:56;;;;;;;18.33;16.33;;;;;;;28.17;53.14;99679.16;5019222;28;20100;-76
2021/06/29 07:40:22;;;;;;;19.67;17.05;;;;;;;27.98;52.89;99601.53;5015364;28;20113;-77
2021/06/29 07:42:48;;;;;;;25.42;22.73;;;;;;;28.07;52.96;99610.63;5011244;28;20018;-76
2021/06/29 07:45:14;;;;;;;24.15;18.17;;;;;;;28.06;52.74;99603.59;5024852;28;20058;-76
2021/06/29 07:47:40;;;;;;;19.92;17.85;;;;;;;28.38;52.20;99646.38;5025181;28;20030;-75
2021/06/29 07:50:09;;;;;;;19.65;17.00;;;;;;;28.50;52.30;99646.75;5016141;28;20026;-75
2021/06/29 07:52:35;;;;;;;18.52;16.73;;;;;;;28.69;52.00;99654.88;5010635;28;20087;-75
2021/06/29 07:55:01;;;;;;;18.75;16.60;;;;;;;28.28;51.56;99589.50;5011133;28;20025;-76
2021/06/29 07:57:27;;;;;;;22.08;16.85;;;;;;;28.82;51.65;99659.56;5011074;28;20195;-77
2021/06/29 07:59:52;;;;;;;19.58;17.73;;;;;;;28.62;51.10;99616.41;5023290;28;20048;-76
2021/06/29 08:02:18;;;;;;;19.17;17.27;;;;;;;28.70;50.76;99630.13;5016764;28;20029;-77
2021/06/29 08:04:44;;;;;;;18.70;16.77;;;;;;;28.95;50.41;99642.53;5024920;28;20478;-77
2021/06/29 08:07:09;;;;;;;19.63;17.23;;;;;;;29.15;50.37;99651.50;5026054;28;20517;-75
2021/06/29 08:09:35;;;;;;;19.90;17.88;;;;;;;29.23;50.56;99659.78;5024964;28;20022;-74
2021/06/29 08:12:00;;;;;;;22.55;20.20;;;;;;;28.81;49.94;99571.00;5009826;28;20026;-77
2021/06/29 08:14:26;;;;;;;21.25;19.00;;;;;;;29.03;49.97;99590.25;5011010;28;20075;-77
2021/06/29 08:16:52;;;;;;;18.63;16.73;;;;;;;29.56;49.78;99646.97;5011144;28;20029;-76
2021/06/29 08:19:17;;;;;;;18.60;16.70;;;;;;;29.07;48.88;99549.69;5010977;28;20044;-76
2021/06/29 08:21:43;;;;;;;17.77;15.98;;;;;;;29.35;49.14;99592.09;5010719;28;20025;-77
2021/06/29 08:24:09;;;;;;;16.65;15.02;;;;;;;29.82;48.92;99643.78;5019560;28;20487;-77
2021/06/29 08:26:34;;;;;;;19.02;16.48;;;;;;;29.62;48.53;99596.78;5030570;28;20151;-74
2021/06/29 08:29:00;;;;;;;20.02;16.40;;;;;;;29.95;47.94;99630.16;5027026;28;20022;-75
2021/06/29 08:31:25;;;;;;;18.00;16.10;;;;;;;29.96;47.37;99615.44;5010691;28;20030;-76
2021/06/29 08:33:53;;;;;;;18.05;15.68;;;;;;;29.47;47.53;99533.72;5021827;28;20021;-76
2021/06/29 08:36:20;;;;;;;17.95;16.05;;;;;;;30.17;47.35;99625.94;5025545;28;20072;-76
2021/06/29 08:38:46;;;;;;;17.75;14.90;;;;;;;29.87;46.66;99553.84;5017347;28;20108;-76
2021/06/29 08:41:12;;;;;;;17.55;15.70;;;;;;;30.37;46.38;99611.84;5024074;28;20118;-75
2021/06/29 08:43:40;;;;;;;23.02;20.85;;;;;;;30.47;46.89;99616.25;5022942;28;20064;-77
2021/06/29 08:46:05;;;;;;;21.08;18.92;;;;;;;29.94;46.29;99511.50;5034460;28;20108;-76
2021/06/29 08:48:31;;;;;;;20.73;17.42;;;;;;;30.69;46.11;99607.34;5029654;28;20108;-75
2021/06/29 08:50:56;;;;;;;25.23;19.75;;;;;;;30.34;45.90;99545.16;5023421;28;20160;-77
2021/06/29 08:53:22;;;;;;;17.48;15.85;;;;;;;30.51;45.36;99544.53;5027231;28;20486;-75
2021/06/29 08:55:51;;;;;;;20.35;18.27;;;;;;;31.01;45.02;99603.56;5016839;28;20123;-75
2021/06/29 08:58:19;;;;;;;19.45;17.45;;;;;;;31.12;45.08;99599.44;5033446;28;20083;-74
2021/06/29 09:00:46;;;;;;;22.25;18.83;;;;;;;31.22;44.68;99594.59;5019296;28;20021;-74
2021/06/29 09:03:12;;;;;;;22.30;19.88;;;;;;;31.13;44.56;99566.41;5016197;28;20033;-74
2021/06/29 09:05:43;;;;;;;22.00;18.88;;;;;;;31.48;44.42;99600.16;5025965;28;20029;-74
2021/06/29 09:08:09;;;;;;;;;;;;;;;31.44;44.50;99592.94;5016227;28;20021;-77
2021/06/29 09:10:41;;;;;;;23.83;21.45;;;;;;;31.61;43.77;99580.13;5032518;28;19912;-75
2021/06/29 09:13:08;;;;;;;20.17;15.82;;;;;;;31.78;43.56;99589.53;5031739;28;20544;-76
2021/06/29 09:15:33;;;;;;;18.23;16.42;;;;;;;31.87;43.10;99582.97;5023787;28;20133;-76
2021/06/29 09:18:05;;;;;;;16.02;14.30;;;;;;;32.04;42.66;99581.41;5023180;28;20549;-76
2021/06/29 09:20:43;;;;;;;16.98;14.15;;;;;;;32.14;42.40;99589.31;5026870;28;20030;-75
2021/06/29 09:23:18;;;;;;;18.08;16.17;;;;;;;31.87;41.98;99513.91;5031648;28;20581;-75
2021/06/29 09:25:48;;;;;;;18.92;14.80;;;;;;;31.95;41.87;99490.44;5018717;28;20021;-74
2021/06/29 09:28:17;;;;;;;17.85;15.63;;;;;;;32.45;41.39;99537.25;5014896;28;20080;-76
2021/06/29 09:30:57;;;;;;;15.98;14.30;;;;;;;32.78;41.22;99567.66;5023666;28;20033;-77
2021/06/29 09:33:32;;;;;;;19.80;15.07;;;;;;;32.85;40.83;99571.50;5027740;28;20021;-76
2021/06/29 09:36:00;;;;;;;16.80;14.25;;;;;;;33.07;40.82;99566.94;5019718;28;20022;-76
2021/06/29 09:38:28;;;;;;;15.85;14.15;;;;;;;32.98;40.65;99514.19;5012075;28;20461;-76
2021/06/29 09:41:03;;;;;;;14.93;13.48;;;;;;;33.59;39.54;99555.81;5013544;28;20556;-75
2021/06/29 09:43:57;;;;;;;15.75;14.07;;;;;;;33.62;39.04;99527.78;5013138;28;20109;-76
2021/06/29 09:46:25;;;;;;;14.95;13.48;;;;;;;33.48;39.28;99486.97;5029361;28;20048;-76
2021/06/29 09:48:55;;;;;;;15.43;13.95;;;;;;;34.09;38.64;99551.16;5031333;28;20036;-76
2021/06/29 09:51:24;;;;;;;17.93;13.37;;;;;;;34.20;38.73;99540.63;5022845;28;20029;-76
2021/06/29 09:53:52;;;;;;;12.98;11.57;;;;;;;34.15;38.36;99510.66;5035728;28;20290;-75
2021/06/29 09:56:23;;;;;;;12.90;11.60;;;;;;;34.56;37.49;99541.94;5049852;28;20501;-76
2021/06/29 09:58:55;;;;;;;12.70;11.40;;;;;;;34.14;37.41;99458.94;5034156;28;20461;-76
2021/06/29 10:01:25;;;;;;;11.73;10.27;;;;;;;34.38;36.91;99486.47;5031647;28;20100;-75
2021/06/29 10:03:52;;;;;;;13.38;10.13;;;;;;;34.58;36.67;99479.34;5032993;28;20105;-75
2021/06/29 10:06:28;;;;;;;10.30;9.25;;;;;;;35.11;35.62;99529.78;5032381;28;20034;-77
2021/06/29 10:09:02;;;;;;;11.02;9.20;;;;;;;34.97;35.51;99489.75;5034446;28;20025;-75
2021/06/29 10:11:33;;;;;;;13.23;9.18;;;;;;;34.95;34.89;99464.59;5048882;28;20032;-76
2021/06/29 10:14:10;;;;;;;11.63;9.38;;;;;;;35.48;34.14;99525.94;5062265;28;20071;-74
2021/06/29 10:16:43;;;;;;;11.50;8.73;;;;;;;35.55;33.62;99517.09;5038679;28;20068;-75
2021/06/29 10:21:39;;;;;;;11.00;8.73;;;;;;;35.49;33.14;99489.06;5070367;28;20033;-74
2021/06/29 10:24:08;;;;;;;12.25;8.35;;;;;;;35.31;32.78;99458.28;5053857;28;20513;-77
2021/06/29 10:26:37;;;;;;;13.25;8.98;;;;;;;35.70;32.59;99512.88;5051968;28;20494;-76
2021/06/29 10:29:06;;;;;;;9.60;8.63;;;;;;;35.45;32.47;99470.91;5043510;28;20033;-76
2021/06/29 10:31:35;;;;;;;11.07;9.75;;;;;;;35.97;32.36;99521.19;5060107;28;20529;-76
2021/06/29 10:34:04;;;;;;;11.23;8.65;;;;;;;35.55;32.02;99434.72;5062776;28;20481;-76
2021/06/29 10:36:32;;;;;;;10.55;8.57;;;;;;;36.15;31.41;99512.66;5063935;28;20489;-77
2021/06/29 10:38:59;;;;;;;12.38;9.35;;;;;;;36.32;31.14;99508.84;5055969;28;20052;-77
2021/06/29 10:41:26;;;;;;;9.20;7.95;;;;;;;36.27;31.09;99471.38;5036281;28;20041;-74
2021/06/29 10:43:54;;;;;;;10.55;9.05;;;;;;;36.38;30.45;99478.00;5034308;28;20244;-76
2021/06/29 10:46:28;;;;;;;10.15;8.77;;;;;;;36.85;30.30;99510.34;5039223;28;20029;-77
2021/06/29 10:49:17;;;;;;;11.00;8.20;;;;;;;36.78;29.84;99502.69;5050438;28;20039;-75
2021/06/29 10:51:42;;;;;;;11.10;7.88;;;;;;;35.75;30.71;99427.47;5032526;28;20048;-77
2021/06/29 10:54:41;;;;;;;8.85;8.05;;;;;;;35.54;31.57;99490.78;5033164;28;20017;-75
2021/06/29 10:57:10;;;;;;;9.75;7.80;;;;;;;34.93;31.86;99458.66;5035979;28;20528;-77
2021/06/29 10:59:39;;;;;;;8.63;7.70;;;;;;;35.08;32.14;99487.34;5036316;28;20108;-74
2021/06/29 11:02:06;;;;;;;8.98;8.05;;;;;;;35.16;31.83;99447.22;5036161;28;20024;-76
2021/06/29 11:04:47;;;;;;;9.52;8.23;;;;;;;35.96;31.07;99470.13;5033709;28;20629;-75
2021/06/29 11:07:36;;;;;;;9.98;7.82;;;;;;;36.41;30.28;99460.78;5036197;28;20049;-76
2021/06/29 11:10:11;;;;;;;11.70;10.02;;;;;;;36.88;29.65;99465.59;5038992;28;20037;-77
2021/06/29 11:12:52;;;;;;;11.57;10.38;;;;;;;37.00;29.66;99462.75;5046355;28;20028;-75
2021/06/29 11:15:19;;;;;;;8.65;7.82;;;;;;;36.85;29.08;99425.81;5041322;28;20450;-77
2021/06/29 11:17:51;;;;;;;9.13;8.18;;;;;;;37.13;28.69;99463.44;5030309;28;20021;-75
2021/06/29 11:20:18;;;;;;;10.10;9.18;;;;;;;36.70;28.71;99366.06;5043074;28;20033;-77
2021/06/29 11:22:59;;;;;;;10.27;9.18;;;;;;;37.33;28.59;99432.09;5031836;28;20040;-77
2021/06/29 11:25:50;;;;;;;10.95;8.52;;;;;;;37.57;28.68;99417.28;5045822;28;20421;-77
2021/06/29 11:28:36;;;;;;;11.50;10.32;;;;;;;38.00;28.18;99434.75;5031314;28;20037;-77
2021/06/29 11:31:23;;;;;;;9.30;8.32;;;;;;;37.77;27.30;99418.13;5044264;28;20082;-76